Historyczne dane pomiarowe

Dodano dane terminowe – wersja testowa.

Dane z okresu 1951-2019

Wersja bazy: 1.34 [2019-03-16, lista zmian], aktualizacja planowana na 2019-04-15

Dane meteo z obszaru Polski uzyskane na podstawie danych udostępnionych przez Instytut Meteorologii i Gospodarki Wodnej – Państwowy Instytut Badawczy.

 

Wybierz Datę:    

       

TemperaturaWilgotnośćWiatrCiśnienieOpadyŚniegCzas trwania zjawisk
 Stacja t tx tn tng RH VA  wxwx mslp ppp RRR   cm mm wxwxwxwxwxwxwx
2019-07-25 18.2 25.6 9.2 7.8 75.0- 1.3 2.3---- 0.0------------
2019-07-24 19.4 24.7 14.8 14.8 82.5- 4.3 1.0---- 0.0------------
2019-07-23 17.1 22.2 11.2 9.9 74.3- 5.3 2.7---- 0.0------------
2019-07-22 17.4 22.2 12.7 11.2 74.5- 3.7 4.0---- 0.0------------
2019-07-21 20.0 26.1 11.7 9.7 68.8- 5.7 2.7---- 0.0------------
2019-07-20 19.5 27.1 10.5 6.3 66.5- 2.0 1.7---- 0.0------------
2019-07-19 17.2 25.6 5.8 3.4 74.8- 4.0 1.0---- 0.0------------
2019-07-18 15.9 21.7 8.7 6.8 79.0- 2.7 2.7---- 0.0------------
2019-07-17 14.7 18.7 9.7 6.8 80.3- 4.3 3.7---- 0.0------------
2019-07-16 14.1 19.2 9.2 6.8 89.8- 6.7 2.0---- 3.6------------
2019-07-15 15.5 22.2 7.2 5.8 75.0- 3.0 0.7---- 1.9------------
2019-07-14 14.8 19.2 8.7 5.3 67.3- 0.7 3.7---- 0.0------------
2019-07-13 14.3 20.2 7.2 4.4 85.5- 6.3 2.3---- 0.7------------
2019-07-12 16.4 21.2 10.7 8.7 74.5- 3.3 1.7---- 0.0------------
2019-07-11 15.0 20.2 9.2 8.7 71.0- 3.3 2.3---- 0.0------------
2019-07-10 12.9 15.2 10.2 10.7 88.3- 8.0 3.7---- 0.7------------
2019-07-09 14.1 17.7 11.2 11.2 89.8- 8.0 4.3---- 14.8------------
2019-07-08 14.2 17.2 10.2 9.7 88.5- 6.7 3.0---- 12.2------------
2019-07-07 14.7 17.7 12.2 11.7 69.0- 6.0 5.3---- 2.9------------
2019-07-06 14.1 18.7 8.2 6.3 74.8- 6.3 1.7---- 1.1------------
2019-07-05 14.7 18.2 11.2 11.2 73.8- 4.7 5.7---- 0.8------------
2019-07-04 14.1 18.2 8.2 6.8 63.0- 5.7 4.0---- 3.0------------
2019-07-03 14.2 18.7 8.7 7.8 58.8- 4.0 5.0---- 0.0------------
2019-07-02 17.1 22.2 12.7 11.7 69.5- 3.7 5.0---- 1.2------------
2019-07-01 22.3 30.1 17.3 15.7 70.5- 3.0 2.0---- 0.7------------
2019-06-30 23.7 31.6 13.7 11.7 55.3- 0.0 2.3---- 0.0------------
2019-06-29 18.0 24.2 9.2 6.3 67.3- 1.0 3.0---- 0.0------------
2019-06-28 15.1 20.2 8.7 7.8 71.0- 2.3 5.0---- 0.0------------
2019-06-27 18.6 22.7 15.3 15.3 82.0- 5.3 6.7---- 0.6------------
2019-06-26 23.2 32.1 13.7 11.7 69.0- 5.0 1.7---- 12.1------------
2019-06-25 20.4 28.1 8.7 5.8 71.3- 2.7 1.0---- 0.0------------
2019-06-24 17.9 25.1 7.2 4.4 63.3- 1.3 2.0---- 0.0------------
2019-06-23 15.5 21.7 6.3 3.4 69.3- 0.0 2.7---- 0.0------------
2019-06-22 17.0 20.7 12.2 10.7 69.3- 3.0 2.7---- 0.0------------
2019-06-21 19.8 25.1 15.3 12.7 82.0- 5.7 1.7---- 6.1------------
2019-06-20 21.7 29.6 15.8 13.2 72.8- 4.3 2.3---- 0.5------------
2019-06-19 20.9 27.6 10.2 7.8 67.3- 1.3 1.7---- 0.0------------
2019-06-18 18.3 24.2 8.2 5.8 65.3- 1.3 0.7---- 0.0------------
2019-06-17 17.3 21.7 13.2 13.2 77.8- 4.3 4.0---- 0.0------------
2019-06-16 18.9 24.2 15.3 15.3 89.3- 6.7 3.0---- 0.2------------
2019-06-15 19.3 27.1 10.2 8.7 81.5- 3.7 2.0---- 28.7------------
2019-06-14 19.4 23.7 14.8 14.2 82.3- 5.7 1.7---- 0.0------------
2019-06-13 22.9 31.6 16.3 15.9 66.8- 5.3 2.3---- 34.4------------
2019-06-12 27.0 33.6 19.9 18.6 53.5- 1.3 3.0---- 0.5------------
2019-06-11 26.1 33.6 18.4 14.7 60.8- 2.0 2.7---- 0.0------------
2019-06-10 20.4 28.1 9.2 5.8 52.0- 3.3 1.3---- 0.0------------
2019-06-09 17.6 23.7 8.7 4.4 59.5- 0.7 1.7---- 0.0------------
2019-06-08 19.9 28.6 12.2 9.7 73.0- 2.0 2.0---- 0.8------------
2019-06-07 22.7 28.1 15.8 12.7 61.3- 2.3 2.0---- 0.0------------
2019-06-06 21.8 28.1 13.2 9.9 64.5- 2.7 3.0---- 0.0------------
2019-06-05 22.3 29.1 12.7 9.7 57.5- 1.3 1.7---- 0.0------------
2019-06-04 22.2 28.6 13.8 8.6 57.5- 0.7 2.0---- 0.0------------
2019-06-03 18.8 26.6 5.8 2.9 54.5- 0.3 2.3---- 0.0------------
2019-06-02 16.3 20.2 10.7 9.1 69.3- 4.3 3.0---- 0.0------------
2019-06-01 16.5 21.7 9.7 5.8 75.8- 5.0 1.7---- 0.0------------
2019-05-31 14.2 21.7 4.8 0.5 67.3- 6.0 3.0---- 10.2------------
2019-05-30 11.6 17.7 1.4 -1.5 59.5- 0.3 1.0---- 0.0------------
2019-05-29 10.7 14.7 8.2 8.0 75.8- 3.3 4.7---- 1.0------------
2019-05-28 14.0 18.7 10.2 9.7 94.8- 8.0 3.3---- 13.7------------
2019-05-27 17.1 22.2 13.7 12.7 62.3- 8.0 3.0---- 1.4------------
124.3 ms

 

Źródłem pochodzenia danych jest Instytut Meteorologii i Gospodarki Wodnej – Państwowy Instytut Badawczy. Dane Instytutu Meteorologii i Gospodarki Wodnej – Państwowego Instytutu Badawczego zostały przetworzone.

Dane źródłowe można odnaleźć na stronie https://dane.imgw.pl